Stations météo

réclame
Mon MeteoGroup
Siracusa, Italie (16464): Température de l'air & dewpoint: 12.02.2018 05:00:00 - 18.02.2018 05:00:00 (CET)Siracusa, Italie (16464): reduced air pressure: 12.02.2018 05:00:00 - 18.02.2018 05:00:00 (CET)Siracusa, Italie (16464): Quantités de précipitations: 12.02.2018 05:00:00 - 18.02.2018 05:00:00 (CET)
Date & Time tt [°C] td [°C] ppp [hPa] rr [mm]
18.02.2018 05:00:00 9,1 5,6 1019,4 -
18.02.2018 04:00:00 8,7 5,0 1019,7 -
18.02.2018 03:00:00 8,2 4,4 1020,2 -
18.02.2018 02:00:00 8,4 4,4 1020,9 -
18.02.2018 01:00:00 8,5 3,9 1021,2 0,0
18.02.2018 00:00:00 8,8 4,0 1021,5 -
17.02.2018 23:00:00 9,5 4,4 1021,9 -
17.02.2018 22:00:00 10,2 4,9 1022,0 -
17.02.2018 21:00:00 11,0 5,3 1022,1 -
17.02.2018 20:00:00 12,3 6,3 1022,4 -
17.02.2018 19:00:00 12,7 6,4 1022,5 0,0
17.02.2018 18:00:00 13,6 7,1 1022,2 -
17.02.2018 17:00:00 14,3 7,1 1022,0 -
17.02.2018 16:00:00 14,8 6,8 1022,0 -
17.02.2018 15:00:00 14,6 7,8 1022,4 -
17.02.2018 14:00:00 14,2 7,7 1022,7 -
17.02.2018 13:00:00 14,1 7,3 1023,4 0,0
17.02.2018 12:00:00 14,3 6,8 1024,1 -
17.02.2018 11:00:00 14,1 6,6 1024,7 -
17.02.2018 10:00:00 13,0 7,2 1024,9 -
17.02.2018 09:00:00 8,3 5,0 1025,3 -
17.02.2018 08:00:00 4,8 1,6 1025,5 -
17.02.2018 07:00:00 3,5 -0,2 1025,3 0,0
17.02.2018 06:00:00 3,6 -0,1 1025,0 -
17.02.2018 05:00:00 3,9 0,2 1025,0 -
17.02.2018 04:00:00 4,3 0,6 1025,2 -
17.02.2018 03:00:00 4,6 0,7 1025,3 -
17.02.2018 02:00:00 4,6 0,5 1025,8 -
17.02.2018 01:00:00 5,1 0,8 1025,7 0,0
17.02.2018 00:00:00 5,6 1,3 1025,8 -
16.02.2018 23:00:00 6,0 1,3 1025,9 -
16.02.2018 22:00:00 6,8 1,4 1026,0 -
16.02.2018 21:00:00 7,9 1,6 1025,9 -
16.02.2018 20:00:00 9,5 2,3 1025,6 -
16.02.2018 19:00:00 12,1 4,5 1025,3 0,0
16.02.2018 18:00:00 12,6 4,5 1024,8 -
16.02.2018 17:00:00 13,3 3,6 1024,6 -
16.02.2018 16:00:00 13,7 3,7 1024,4 -
16.02.2018 15:00:00 13,8 3,5 1024,5 -
16.02.2018 14:00:00 13,5 3,7 1024,5 -
16.02.2018 13:00:00 13,4 3,1 1024,9 0,0
16.02.2018 12:00:00 13,2 2,9 1025,1 -
16.02.2018 11:00:00 12,4 1,3 1025,2 -
16.02.2018 10:00:00 11,9 1,1 1024,7 -
16.02.2018 09:00:00 9,1 3,0 1024,3 -
16.02.2018 08:00:00 4,8 -1,3 1023,9 -
16.02.2018 07:00:00 3,7 -3,0 1023,3 0,0
16.02.2018 06:00:00 3,9 -3,0 1022,8 -
16.02.2018 05:00:00 4,0 -3,4 1022,4 -
16.02.2018 04:00:00 4,7 -3,7 1022,3 -
16.02.2018 03:00:00 7,0 -1,3 1022,2 -
16.02.2018 02:00:00 5,1 -2,8 1022,1 -
16.02.2018 01:00:00 5,6 -4,4 1022,1 0,0
16.02.2018 00:00:00 7,2 -3,5 1022,3 -
15.02.2018 23:00:00 7,4 -4,5 1021,4 -
15.02.2018 22:00:00 8,9 -2,8 1021,1 -
15.02.2018 21:00:00 9,5 -3,6 1020,5 -
15.02.2018 20:00:00 9,9 -4,2 1020,0 -
15.02.2018 19:00:00 11,0 -0,9 1019,1 0,0
15.02.2018 18:00:00 11,5 -1,4 1018,4 -
15.02.2018 17:00:00 12,2 -4,6 1017,6 -
15.02.2018 16:00:00 12,4 -0,6 1017,3 -
15.02.2018 15:00:00 13,2 -3,7 1016,7 -
15.02.2018 14:00:00 12,2 -1,8 1016,9 -
15.02.2018 13:00:00 12,7 1,0 1016,9 0,0
15.02.2018 12:00:00 12,1 0,1 1017,0 -
15.02.2018 11:00:00 10,6 0,5 1017,0 -
15.02.2018 10:00:00 11,2 1,1 1016,2 -
15.02.2018 09:00:00 8,7 0,6 1015,9 -
15.02.2018 08:00:00 9,2 0,5 1015,2 -
15.02.2018 07:00:00 8,2 0,8 1014,2 0,0
15.02.2018 06:00:00 9,3 1,4 1013,7 -
15.02.2018 05:00:00 9,2 1,0 1012,9 -
15.02.2018 04:00:00 9,3 1,6 1012,2 -
15.02.2018 03:00:00 9,3 2,1 1012,0 -
15.02.2018 02:00:00 7,8 0,4 1011,8 -
15.02.2018 01:00:00 8,1 0,7 1011,7 0,0
15.02.2018 00:00:00 7,8 0,2 1011,7 -
14.02.2018 23:00:00 8,6 1,0 1012,1 -
14.02.2018 22:00:00 8,7 1,5 1011,7 -
14.02.2018 21:00:00 9,3 2,8 1011,5 -
14.02.2018 20:00:00 10,0 3,2 1011,5 -
14.02.2018 19:00:00 10,0 3,9 1011,3 -
14.02.2018 18:00:00 9,6 3,7 1011,1 -
14.02.2018 17:00:00 10,2 4,9 1011,8 -
14.02.2018 16:00:00 9,9 6,2 1012,0 -
14.02.2018 15:00:00 10,1 5,0 1012,2 -
14.02.2018 14:00:00 13,0 6,1 1012,8 -
14.02.2018 13:00:00 13,0 4,9 1014,3 0,0
14.02.2018 12:00:00 14,8 3,2 1015,1 -
14.02.2018 11:00:00 13,5 3,7 1016,0 -
14.02.2018 10:00:00 12,5 2,5 1016,5 -
14.02.2018 09:00:00 11,0 2,0 1016,9 -
14.02.2018 08:00:00 7,2 -0,6 1016,7 -
14.02.2018 07:00:00 7,2 -1,6 1016,4 0,0
14.02.2018 06:00:00 7,9 -0,7 1016,1 -
14.02.2018 05:00:00 8,7 -0,2 1016,2 -
14.02.2018 04:00:00 8,6 0,0 1016,0 -
14.02.2018 03:00:00 8,4 -0,2 1016,3 -
14.02.2018 02:00:00 9,2 0,8 1017,0 -
14.02.2018 01:00:00 9,4 -0,6 1016,5 0,0
14.02.2018 00:00:00 8,8 -0,4 1015,9 -
13.02.2018 23:00:00 8,8 0,7 1015,6 -
13.02.2018 22:00:00 9,3 0,6 1015,6 -
13.02.2018 21:00:00 9,2 -0,2 1015,1 -
13.02.2018 20:00:00 10,5 0,4 1014,2 -
13.02.2018 19:00:00 11,4 0,7 1013,3 0,0
13.02.2018 18:00:00 12,5 0,5 1012,1 -
13.02.2018 17:00:00 14,5 2,0 1011,3 -
13.02.2018 16:00:00 14,9 2,0 1010,5 -
13.02.2018 15:00:00 15,4 3,7 1010,2 -
13.02.2018 14:00:00 16,4 4,3 1009,5 -
13.02.2018 13:00:00 15,7 5,8 1010,2 0,0
13.02.2018 12:00:00 15,8 6,4 1010,5 -
13.02.2018 11:00:00 15,9 7,3 1010,6 -
13.02.2018 10:00:00 15,7 9,3 1010,8 -
13.02.2018 09:00:00 14,0 9,0 1010,7 -
13.02.2018 08:00:00 12,4 8,0 1010,8 -
13.02.2018 07:00:00 12,2 7,5 1011,6 0,0
13.02.2018 06:00:00 12,7 7,1 1012,1 -
13.02.2018 05:00:00 12,8 8,0 1012,6 -
13.02.2018 04:00:00 12,8 8,4 1013,3 -
13.02.2018 03:00:00 13,4 8,2 1013,8 -
13.02.2018 02:00:00 13,1 7,5 1014,3 -
13.02.2018 01:00:00 12,9 6,9 1014,6 0,0
13.02.2018 00:00:00 12,1 6,7 1015,0 -
12.02.2018 23:00:00 12,4 6,6 1015,1 -
12.02.2018 22:00:00 11,3 6,0 1014,9 -
12.02.2018 21:00:00 11,2 5,9 1015,1 -
12.02.2018 20:00:00 11,0 4,6 1015,1 -
12.02.2018 19:00:00 13,0 6,3 1014,9 0,0
12.02.2018 18:00:00 13,7 6,0 1014,4 -
12.02.2018 17:00:00 14,3 4,8 1013,8 -
12.02.2018 16:00:00 14,2 5,2 1013,5 -
12.02.2018 15:00:00 14,1 4,0 1013,6 -
12.02.2018 14:00:00 14,5 4,4 1013,5 -
12.02.2018 13:00:00 16,1 2,0 1014,1 0,0
12.02.2018 12:00:00 15,6 3,6 1014,5 -
12.02.2018 11:00:00 15,0 4,3 1014,9 -
12.02.2018 10:00:00 13,2 4,3 1015,0 -
12.02.2018 09:00:00 9,8 3,5 1015,4 -
12.02.2018 08:00:00 5,4 0,5 1015,1 -
12.02.2018 07:00:00 4,4 -0,7 1014,7 0,0
12.02.2018 06:00:00 5,1 0,0 1014,3 -
12.02.2018 05:00:00 4,9 -0,6 1014,2 -

tt = Température de l'air
td = dewpoint
ppp = reduced air pressure
rr = Quantités de précipitations

stations d'obs. à proximité